TimeCET,TemperatureF,Dew PointF,Humidity,Sea Level PressureIn,VisibilityMPH,Wind Direction,Wind SpeedMPH,Gust SpeedMPH,PrecipitationIn,Events,Conditions,WindDirDegrees,DateUTC
12:00 AM,35.6,35.6,100,30.18,0.2,Variable,3.5,-,N/A,Fog,Fog,0,2014-01-06 23:00:00
12:30 AM,35.6,35.6,100,30.15,0.2,Variable,3.5,-,N/A,Fog,Fog,0,2014-01-06 23:30:00
1:00 AM,35.6,35.6,100,30.15,0.1,Variable,3.5,-,N/A,Fog,Fog,0,2014-01-07 00:00:00
1:30 AM,35.6,35.6,100,30.18,0.1,Variable,2.3,-,N/A,Fog,Fog,0,2014-01-07 00:30:00
2:00 AM,33.8,33.8,100,30.18,0.2,Variable,2.3,-,N/A,Fog,Fog,0,2014-01-07 01:00:00
2:30 AM,32.0,32.0,100,30.18,0.5,Variable,2.3,-,N/A,Fog,Fog,0,2014-01-07 01:30:00
3:00 AM,30.2,30.2,100,30.18,0.5,Variable,3.5,-,N/A,Fog,Fog,0,2014-01-07 02:00:00
3:30 AM,32.0,32.0,100,30.18,0.2,Variable,3.5,-,N/A,Fog,Fog,0,2014-01-07 02:30:00
4:00 AM,33.8,33.8,100,30.18,0.1,Variable,2.3,-,N/A,Fog,Fog,0,2014-01-07 03:00:00
4:30 AM,35.6,35.6,100,30.15,0.1,East,4.6,-,N/A,Fog,Fog,100,2014-01-07 03:30:00
5:00 AM,35.6,35.6,100,30.15,0.1,Variable,2.3,-,N/A,Fog,Fog,0,2014-01-07 04:00:00
5:30 AM,35.6,35.6,100,30.15,0.2,ESE,5.8,-,N/A,Fog,Fog,110,2014-01-07 04:30:00
6:00 AM,35.6,35.6,100,30.18,0.5,Variable,3.5,-,N/A,Fog,Fog,0,2014-01-07 05:00:00
6:30 AM,35.6,35.6,100,30.18,0.3,SE,8.1,-,N/A,Fog,Fog,130,2014-01-07 05:30:00
7:00 AM,35.6,35.6,100,30.21,0.2,East,8.1,-,N/A,Fog,Fog,100,2014-01-07 06:00:00
7:30 AM,35.6,35.6,100,30.21,0.1,East,6.9,-,N/A,Fog,Fog,100,2014-01-07 06:30:00
8:00 AM,35.6,35.6,100,30.21,0.1,East,5.8,-,N/A,Fog,Light Fog,100,2014-01-07 07:00:00
8:30 AM,37.4,37.4,100,30.24,0.1,East,4.6,-,N/A,Fog,Light Drizzle,90,2014-01-07 07:30:00
9:00 AM,39.2,39.2,100,30.24,0.1,ESE,5.8,-,N/A,Fog,Light Drizzle,110,2014-01-07 08:00:00
9:30 AM,39.2,39.2,100,30.24,0.1,ESE,6.9,-,N/A,Fog,Light Drizzle,120,2014-01-07 08:30:00
10:00 AM,41.0,39.2,93,30.24,0.1,SE,6.9,-,N/A,Fog,Light Drizzle,130,2014-01-07 09:00:00
10:30 AM,41.0,41.0,100,30.24,0.1,ESE,6.9,-,N/A,Fog,Light Drizzle,120,2014-01-07 09:30:00
11:00 AM,41.0,41.0,100,30.24,0.1,SE,6.9,-,N/A,Fog,Light Drizzle,130,2014-01-07 10:00:00
11:30 AM,41.0,41.0,100,30.24,0.1,ESE,6.9,-,N/A,Fog,Light Drizzle,120,2014-01-07 10:30:00
12:00 PM,42.8,42.8,100,30.24,0.1,SSE,5.8,-,N/A,Fog,Light Drizzle,150,2014-01-07 11:00:00
12:30 PM,42.8,42.8,100,30.24,0.2,SE,4.6,-,N/A,Fog,Light Drizzle,140,2014-01-07 11:30:00
1:00 PM,42.8,42.8,100,30.24,0.2,SE,4.6,-,N/A,Fog,Light Drizzle,130,2014-01-07 12:00:00
1:30 PM,42.8,42.8,100,30.24,0.2,ENE,5.8,-,N/A,Fog,Light Drizzle,70,2014-01-07 12:30:00
2:00 PM,42.8,42.8,100,30.24,0.2,ENE,5.8,-,N/A,Fog,Light Drizzle,70,2014-01-07 13:00:00
2:30 PM,42.8,42.8,100,30.24,0.2,East,5.8,-,N/A,Fog,Light Drizzle,80,2014-01-07 13:30:00
3:00 PM,42.8,42.8,100,30.24,0.3,East,5.8,-,N/A,Fog,Light Drizzle,80,2014-01-07 14:00:00
3:30 PM,42.8,42.8,100,30.24,0.3,East,6.9,-,N/A,Fog,Light Drizzle,90,2014-01-07 14:30:00
4:00 PM,42.8,42.8,100,30.24,0.2,East,6.9,-,N/A,Fog,Light Drizzle,100,2014-01-07 15:00:00
4:30 PM,42.8,42.8,100,30.24,0.3,East,6.9,-,N/A,Fog,Light Drizzle,90,2014-01-07 15:30:00
5:00 PM,42.8,42.8,100,30.24,0.5,East,5.8,-,N/A,Fog,Fog,80,2014-01-07 16:00:00
5:30 PM,42.8,42.8,100,30.24,0.2,East,4.6,-,N/A,Fog,Fog,90,2014-01-07 16:30:00
6:00 PM,42.8,42.8,100,30.24,0.1,ESE,8.1,-,N/A,Fog,Light Fog,110,2014-01-07 17:00:00
6:30 PM,42.8,42.8,100,30.24,0.3,ESE,6.9,-,N/A,,Overcast,110,2014-01-07 17:30:00
7:00 PM,42.8,42.8,100,30.27,0.6,Variable,3.5,-,N/A,Fog,Patches of Fog,0,2014-01-07 18:00:00
7:30 PM,44.6,44.6,100,30.27,0.9,Variable,3.5,-,N/A,Fog,Light Drizzle,0,2014-01-07 18:30:00
8:00 PM,42.8,42.8,100,30.27,0.6,Variable,3.5,-,N/A,Fog,Light Drizzle,0,2014-01-07 19:00:00
8:30 PM,42.8,42.8,100,30.27,0.5,Variable,3.5,-,N/A,Fog,Light Drizzle,0,2014-01-07 19:30:00
9:00 PM,42.8,42.8,100,30.27,0.3,Variable,3.5,-,N/A,Fog,Light Drizzle,0,2014-01-07 20:00:00
9:30 PM,42.8,42.8,100,30.27,0.3,East,5.8,-,N/A,Fog,Light Drizzle,100,2014-01-07 20:30:00
10:00 PM,42.8,42.8,100,30.27,0.2,Variable,3.5,-,N/A,Fog,Light Drizzle,0,2014-01-07 21:00:00
10:30 PM,42.8,42.8,100,30.27,0.4,East,4.6,-,N/A,Fog,Light Drizzle,80,2014-01-07 21:30:00
11:00 PM,42.8,42.8,100,30.27,0.5,East,4.6,-,N/A,Fog,Light Drizzle,80,2014-01-07 22:00:00
11:30 PM,42.8,42.8,100,30.27,0.6,East,8.1,-,N/A,Fog,Light Drizzle,100,2014-01-07 22:30:00